Omaha, NE

6:12 AM CST on December 22, 2014 (GMT -0600)
Piedmont/Wycliffe West 154St. & West Dodge St. | Change Station
CLOSE
Current Station
Personal Weather Station
Location: Omaha, NE
Elevation: 1197 ft
Nearby Weather Stations

Elev 1197 ft 41.26 °N, 96.15 °W | Updated 9 minutes ago

Rain
Rain
41.3 °F
Feels Like 41 °F
N
3.0
Wind Variable Wind from SSW
Gusts 8.0 mph

Today
High -- | Low -- °F
--% Chance of Precip.
Yesterday
High -- | Low -- °F
Precip. -- in
7:47 AM 4:59 PM
New Moon, 0% visible
Pressure 29.54 in
Visibility 5.0 miles
Clouds Overcast 700 ft
Windchill 41 °F
Dew Point 41 °F
Humidity 98%
Rainfall 0.11 in
Snow Depth Not available.
UV 0 out of 12
Pollen .10 out of 12
Air Quality Not available.
Flu Activity Not available.
METAR KMLE 221155Z AUTO 14009KT 5SM -RA OVC007 06/05 A2954 RMK AO2 P0002 60006 70006 T00610050 10068 20060

More Conditions Fewer Conditions

Pressure 29.54 in
Visibility 5.0 miles
Clouds Overcast 700 ft
Windchill 41 °F
Dew Point 41 °F
Humidity 98%
Rainfall 0.11 in
Snow Depth Not available.
UV 0 out of 12
Pollen .10 out of 12
Air Quality Not available.
Flu Activity Not available.
METAR KMLE 221155Z AUTO 14009KT 5SM -RA OVC007 06/05 A2954 RMK AO2 P0002 60006 70006 T00610050 10068 20060

More Conditions Fewer Conditions

10-Day Weather Forecast

Almanac

Astronomy

Dec. 22, 2014 Rise Set
Actual Time
Civil Twilight
Nautical Twilight
Astronomical Twilight
Moon
Length of Visible Light
Length of Day
Tomorrow will be .
, % of the Moon is Illuminated

Today's Extremes

State Highs State Lows

Community

WunderPhotos

Upload Photos

1,779,593 photos uploaded!

WunderBlogs® & News

Nearby

Air Quality

  Air Quality AQ Index Pollutant
Not available.

Snow Depth

Station Depth Elevation

Earthquake Activity

City Distance Mag. Time & Date
Minimum magnitude displayed is 2.5.

Coastal Water Temperatures

Place Temperature

Nearby Weather Stations